sensor_id;sensor_type;location;lat;lon;timestamp;P1;durP1;ratioP1;P2;durP2;ratioP2
76296;SDS011;65104;52.994;6.552;2023-05-07T00:01:03;11.27;;;8.35;;
76296;SDS011;65104;52.994;6.552;2023-05-07T00:03:30;15.13;;;9.07;;
76296;SDS011;65104;52.994;6.552;2023-05-07T00:05:56;14.20;;;8.60;;
76296;SDS011;65104;52.994;6.552;2023-05-07T00:08:21;17.50;;;9.20;;
76296;SDS011;65104;52.994;6.552;2023-05-07T00:10:47;13.27;;;9.00;;
76296;SDS011;65104;52.994;6.552;2023-05-07T00:13:12;16.33;;;9.48;;
76296;SDS011;65104;52.994;6.552;2023-05-07T00:15:38;19.55;;;9.60;;
76296;SDS011;65104;52.994;6.552;2023-05-07T00:18:03;16.20;;;10.00;;
76296;SDS011;65104;52.994;6.552;2023-05-07T00:20:28;15.55;;;10.20;;
76296;SDS011;65104;52.994;6.552;2023-05-07T00:22:54;15.07;;;10.05;;
76296;SDS011;65104;52.994;6.552;2023-05-07T00:25:19;17.38;;;10.30;;
76296;SDS011;65104;52.994;6.552;2023-05-07T00:27:45;20.98;;;9.82;;
76296;SDS011;65104;52.994;6.552;2023-05-07T00:30:10;14.70;;;10.18;;
76296;SDS011;65104;52.994;6.552;2023-05-07T00:32:36;17.77;;;10.63;;
76296;SDS011;65104;52.994;6.552;2023-05-07T00:35:02;18.20;;;11.40;;
76296;SDS011;65104;52.994;6.552;2023-05-07T00:37:28;19.17;;;11.25;;
76296;SDS011;65104;52.994;6.552;2023-05-07T00:39:54;17.35;;;10.82;;
76296;SDS011;65104;52.994;6.552;2023-05-07T00:42:20;18.02;;;9.98;;
76296;SDS011;65104;52.994;6.552;2023-05-07T00:44:46;18.73;;;10.90;;
76296;SDS011;65104;52.994;6.552;2023-05-07T00:47:11;18.40;;;11.18;;
76296;SDS011;65104;52.994;6.552;2023-05-07T00:49:38;18.88;;;12.05;;
76296;SDS011;65104;52.994;6.552;2023-05-07T00:52:06;19.88;;;11.70;;
76296;SDS011;65104;52.994;6.552;2023-05-07T00:54:34;19.70;;;11.30;;
76296;SDS011;65104;52.994;6.552;2023-05-07T00:56:59;18.48;;;10.88;;
76296;SDS011;65104;52.994;6.552;2023-05-07T00:59:26;20.73;;;12.25;;
76296;SDS011;65104;52.994;6.552;2023-05-07T01:01:52;19.33;;;11.88;;
76296;SDS011;65104;52.994;6.552;2023-05-07T01:04:18;20.90;;;10.93;;
76296;SDS011;65104;52.994;6.552;2023-05-07T01:06:44;22.23;;;12.63;;
76296;SDS011;65104;52.994;6.552;2023-05-07T01:09:10;17.45;;;11.75;;
76296;SDS011;65104;52.994;6.552;2023-05-07T01:11:38;19.65;;;12.00;;
76296;SDS011;65104;52.994;6.552;2023-05-07T01:14:04;19.77;;;11.88;;
76296;SDS011;65104;52.994;6.552;2023-05-07T01:16:30;21.13;;;12.80;;
76296;SDS011;65104;52.994;6.552;2023-05-07T01:18:56;24.55;;;12.63;;
76296;SDS011;65104;52.994;6.552;2023-05-07T01:21:24;24.75;;;13.95;;
76296;SDS011;65104;52.994;6.552;2023-05-07T01:23:51;17.70;;;10.85;;
76296;SDS011;65104;52.994;6.552;2023-05-07T01:26:18;21.10;;;12.82;;
76296;SDS011;65104;52.994;6.552;2023-05-07T01:28:44;23.73;;;13.88;;
76296;SDS011;65104;52.994;6.552;2023-05-07T01:31:10;23.05;;;12.55;;
76296;SDS011;65104;52.994;6.552;2023-05-07T01:33:38;22.90;;;13.95;;
76296;SDS011;65104;52.994;6.552;2023-05-07T01:36:08;21.27;;;12.88;;
76296;SDS011;65104;52.994;6.552;2023-05-07T01:38:36;22.00;;;12.25;;
76296;SDS011;65104;52.994;6.552;2023-05-07T01:41:03;24.25;;;11.57;;
76296;SDS011;65104;52.994;6.552;2023-05-07T01:43:29;22.55;;;13.10;;
76296;SDS011;65104;52.994;6.552;2023-05-07T01:45:55;19.88;;;13.13;;
76296;SDS011;65104;52.994;6.552;2023-05-07T01:48:22;20.27;;;12.00;;
76296;SDS011;65104;52.994;6.552;2023-05-07T01:50:49;19.40;;;12.40;;
76296;SDS011;65104;52.994;6.552;2023-05-07T01:53:15;21.90;;;12.57;;
76296;SDS011;65104;52.994;6.552;2023-05-07T01:55:40;21.25;;;13.18;;
76296;SDS011;65104;52.994;6.552;2023-05-07T01:58:06;24.45;;;14.07;;
76296;SDS011;65104;52.994;6.552;2023-05-07T02:00:31;22.63;;;13.45;;
76296;SDS011;65104;52.994;6.552;2023-05-07T02:02:57;23.42;;;13.55;;
76296;SDS011;65104;52.994;6.552;2023-05-07T02:05:23;23.77;;;12.60;;
76296;SDS011;65104;52.994;6.552;2023-05-07T02:07:48;25.00;;;13.52;;
76296;SDS011;65104;52.994;6.552;2023-05-07T02:10:14;25.02;;;13.95;;
76296;SDS011;65104;52.994;6.552;2023-05-07T02:12:39;28.77;;;15.23;;
76296;SDS011;65104;52.994;6.552;2023-05-07T02:15:05;22.88;;;13.43;;
76296;SDS011;65104;52.994;6.552;2023-05-07T02:17:30;21.73;;;14.00;;
76296;SDS011;65104;52.994;6.552;2023-05-07T02:19:57;23.85;;;13.68;;
76296;SDS011;65104;52.994;6.552;2023-05-07T02:22:23;25.08;;;13.93;;
76296;SDS011;65104;52.994;6.552;2023-05-07T02:24:49;25.95;;;14.93;;
76296;SDS011;65104;52.994;6.552;2023-05-07T02:27:14;26.02;;;14.38;;
76296;SDS011;65104;52.994;6.552;2023-05-07T02:29:39;24.35;;;14.00;;
76296;SDS011;65104;52.994;6.552;2023-05-07T02:32:05;25.38;;;14.02;;
76296;SDS011;65104;52.994;6.552;2023-05-07T02:34:30;27.90;;;16.40;;
76296;SDS011;65104;52.994;6.552;2023-05-07T02:36:56;27.38;;;14.68;;
76296;SDS011;65104;52.994;6.552;2023-05-07T02:39:21;29.38;;;15.35;;
76296;SDS011;65104;52.994;6.552;2023-05-07T02:41:47;25.25;;;15.10;;
76296;SDS011;65104;52.994;6.552;2023-05-07T02:44:12;27.98;;;15.38;;
76296;SDS011;65104;52.994;6.552;2023-05-07T02:46:37;25.63;;;13.98;;
76296;SDS011;65104;52.994;6.552;2023-05-07T02:49:03;31.50;;;14.70;;
76296;SDS011;65104;52.994;6.552;2023-05-07T02:51:29;26.77;;;15.10;;
76296;SDS011;65104;52.994;6.552;2023-05-07T02:53:55;23.55;;;14.95;;
76296;SDS011;65104;52.994;6.552;2023-05-07T02:56:21;25.73;;;15.15;;
76296;SDS011;65104;52.994;6.552;2023-05-07T02:58:46;29.65;;;16.38;;
76296;SDS011;65104;52.994;6.552;2023-05-07T03:01:12;25.77;;;14.57;;
76296;SDS011;65104;52.994;6.552;2023-05-07T03:03:38;30.58;;;16.73;;
76296;SDS011;65104;52.994;6.552;2023-05-07T03:06:05;30.80;;;16.52;;
76296;SDS011;65104;52.994;6.552;2023-05-07T03:08:31;30.58;;;16.50;;
76296;SDS011;65104;52.994;6.552;2023-05-07T03:10:57;31.40;;;17.13;;
76296;SDS011;65104;52.994;6.552;2023-05-07T03:13:22;32.45;;;16.45;;
76296;SDS011;65104;52.994;6.552;2023-05-07T03:15:48;30.08;;;16.63;;
76296;SDS011;65104;52.994;6.552;2023-05-07T03:18:13;30.30;;;16.73;;
76296;SDS011;65104;52.994;6.552;2023-05-07T03:20:39;32.42;;;17.30;;
76296;SDS011;65104;52.994;6.552;2023-05-07T03:23:04;32.40;;;17.10;;
76296;SDS011;65104;52.994;6.552;2023-05-07T03:25:31;30.20;;;17.38;;
76296;SDS011;65104;52.994;6.552;2023-05-07T03:27:57;32.20;;;17.50;;
76296;SDS011;65104;52.994;6.552;2023-05-07T03:30:22;33.22;;;17.48;;
76296;SDS011;65104;52.994;6.552;2023-05-07T03:32:48;34.65;;;17.27;;
76296;SDS011;65104;52.994;6.552;2023-05-07T03:35:13;35.08;;;17.05;;
76296;SDS011;65104;52.994;6.552;2023-05-07T03:37:39;33.70;;;16.95;;
76296;SDS011;65104;52.994;6.552;2023-05-07T03:40:05;34.10;;;17.48;;
76296;SDS011;65104;52.994;6.552;2023-05-07T03:42:31;38.08;;;17.75;;
76296;SDS011;65104;52.994;6.552;2023-05-07T03:44:57;36.40;;;18.35;;
76296;SDS011;65104;52.994;6.552;2023-05-07T03:47:22;32.88;;;17.80;;
76296;SDS011;65104;52.994;6.552;2023-05-07T03:49:47;32.63;;;17.17;;
76296;SDS011;65104;52.994;6.552;2023-05-07T03:52:14;35.63;;;17.35;;
76296;SDS011;65104;52.994;6.552;2023-05-07T03:54:39;33.78;;;17.10;;
76296;SDS011;65104;52.994;6.552;2023-05-07T03:57:05;34.90;;;18.10;;
76296;SDS011;65104;52.994;6.552;2023-05-07T03:59:30;33.53;;;18.90;;
76296;SDS011;65104;52.994;6.552;2023-05-07T04:01:56;32.78;;;16.40;;
76296;SDS011;65104;52.994;6.552;2023-05-07T04:04:21;34.83;;;17.75;;
76296;SDS011;65104;52.994;6.552;2023-05-07T04:06:46;32.13;;;16.58;;
76296;SDS011;65104;52.994;6.552;2023-05-07T04:09:12;35.80;;;18.90;;
76296;SDS011;65104;52.994;6.552;2023-05-07T04:11:37;32.58;;;17.60;;
76296;SDS011;65104;52.994;6.552;2023-05-07T04:14:05;35.10;;;16.35;;
76296;SDS011;65104;52.994;6.552;2023-05-07T04:16:30;36.25;;;17.10;;
76296;SDS011;65104;52.994;6.552;2023-05-07T04:18:55;33.97;;;18.08;;
76296;SDS011;65104;52.994;6.552;2023-05-07T04:21:21;29.65;;;17.23;;
76296;SDS011;65104;52.994;6.552;2023-05-07T04:23:46;33.22;;;17.30;;
76296;SDS011;65104;52.994;6.552;2023-05-07T04:26:12;31.70;;;17.10;;
76296;SDS011;65104;52.994;6.552;2023-05-07T04:28:38;35.15;;;18.23;;
76296;SDS011;65104;52.994;6.552;2023-05-07T04:31:05;31.65;;;15.95;;
76296;SDS011;65104;52.994;6.552;2023-05-07T04:33:31;38.08;;;18.98;;
76296;SDS011;65104;52.994;6.552;2023-05-07T04:35:56;32.72;;;16.77;;
76296;SDS011;65104;52.994;6.552;2023-05-07T04:38:22;35.75;;;17.77;;
76296;SDS011;65104;52.994;6.552;2023-05-07T04:40:48;30.92;;;17.27;;
76296;SDS011;65104;52.994;6.552;2023-05-07T04:43:14;34.10;;;17.25;;
76296;SDS011;65104;52.994;6.552;2023-05-07T04:45:39;33.40;;;17.85;;
76296;SDS011;65104;52.994;6.552;2023-05-07T04:48:06;34.72;;;16.58;;
76296;SDS011;65104;52.994;6.552;2023-05-07T04:50:32;34.03;;;17.95;;
76296;SDS011;65104;52.994;6.552;2023-05-07T04:52:57;34.78;;;17.40;;
76296;SDS011;65104;52.994;6.552;2023-05-07T04:55:23;33.05;;;16.40;;
76296;SDS011;65104;52.994;6.552;2023-05-07T04:58:07;29.50;;;15.15;;
76296;SDS011;65104;52.994;6.552;2023-05-07T05:00:32;31.17;;;15.60;;
76296;SDS011;65104;52.994;6.552;2023-05-07T05:02:58;28.15;;;15.73;;
76296;SDS011;65104;52.994;6.552;2023-05-07T05:05:23;29.70;;;15.38;;
76296;SDS011;65104;52.994;6.552;2023-05-07T05:07:49;33.03;;;17.23;;
76296;SDS011;65104;52.994;6.552;2023-05-07T05:10:14;30.10;;;15.02;;
76296;SDS011;65104;52.994;6.552;2023-05-07T05:12:41;28.23;;;15.02;;
76296;SDS011;65104;52.994;6.552;2023-05-07T05:15:06;33.67;;;16.55;;
76296;SDS011;65104;52.994;6.552;2023-05-07T05:17:32;30.85;;;16.35;;
76296;SDS011;65104;52.994;6.552;2023-05-07T05:19:59;35.05;;;16.25;;
76296;SDS011;65104;52.994;6.552;2023-05-07T05:22:25;30.75;;;16.55;;
76296;SDS011;65104;52.994;6.552;2023-05-07T05:24:50;31.38;;;16.98;;
76296;SDS011;65104;52.994;6.552;2023-05-07T05:27:16;29.08;;;16.02;;
76296;SDS011;65104;52.994;6.552;2023-05-07T05:29:41;32.35;;;15.57;;
76296;SDS011;65104;52.994;6.552;2023-05-07T05:32:07;32.72;;;15.82;;
76296;SDS011;65104;52.994;6.552;2023-05-07T05:34:32;29.73;;;15.98;;
76296;SDS011;65104;52.994;6.552;2023-05-07T05:36:58;27.58;;;15.60;;
76296;SDS011;65104;52.994;6.552;2023-05-07T05:39:24;27.95;;;14.93;;
76296;SDS011;65104;52.994;6.552;2023-05-07T05:41:49;27.95;;;15.60;;
76296;SDS011;65104;52.994;6.552;2023-05-07T05:44:15;26.63;;;15.25;;
76296;SDS011;65104;52.994;6.552;2023-05-07T05:46:40;26.17;;;15.13;;
76296;SDS011;65104;52.994;6.552;2023-05-07T05:49:06;24.02;;;13.15;;
76296;SDS011;65104;52.994;6.552;2023-05-07T05:51:31;25.02;;;14.02;;
76296;SDS011;65104;52.994;6.552;2023-05-07T05:53:57;26.95;;;14.20;;
76296;SDS011;65104;52.994;6.552;2023-05-07T05:56:22;24.45;;;13.70;;
76296;SDS011;65104;52.994;6.552;2023-05-07T05:58:48;27.48;;;15.13;;
76296;SDS011;65104;52.994;6.552;2023-05-07T06:01:13;27.08;;;14.60;;
76296;SDS011;65104;52.994;6.552;2023-05-07T06:03:38;25.25;;;13.88;;
76296;SDS011;65104;52.994;6.552;2023-05-07T06:06:04;24.23;;;13.23;;
76296;SDS011;65104;52.994;6.552;2023-05-07T06:08:29;27.15;;;14.25;;
76296;SDS011;65104;52.994;6.552;2023-05-07T06:10:55;24.58;;;14.20;;
76296;SDS011;65104;52.994;6.552;2023-05-07T06:13:20;26.20;;;13.50;;
76296;SDS011;65104;52.994;6.552;2023-05-07T06:15:46;24.10;;;14.38;;
76296;SDS011;65104;52.994;6.552;2023-05-07T06:18:11;24.75;;;13.20;;
76296;SDS011;65104;52.994;6.552;2023-05-07T06:20:36;21.35;;;13.52;;
76296;SDS011;65104;52.994;6.552;2023-05-07T06:23:02;22.08;;;14.05;;
76296;SDS011;65104;52.994;6.552;2023-05-07T06:25:27;24.23;;;14.00;;
76296;SDS011;65104;52.994;6.552;2023-05-07T06:27:52;26.50;;;15.27;;
76296;SDS011;65104;52.994;6.552;2023-05-07T06:30:18;23.70;;;14.07;;
76296;SDS011;65104;52.994;6.552;2023-05-07T06:32:43;28.40;;;13.73;;
76296;SDS011;65104;52.994;6.552;2023-05-07T06:35:09;25.27;;;14.82;;
76296;SDS011;65104;52.994;6.552;2023-05-07T06:37:34;25.05;;;14.48;;
76296;SDS011;65104;52.994;6.552;2023-05-07T06:40:00;23.23;;;14.10;;
76296;SDS011;65104;52.994;6.552;2023-05-07T06:42:25;26.33;;;12.88;;
76296;SDS011;65104;52.994;6.552;2023-05-07T06:44:52;26.55;;;14.75;;
76296;SDS011;65104;52.994;6.552;2023-05-07T06:47:17;27.30;;;15.00;;
76296;SDS011;65104;52.994;6.552;2023-05-07T06:49:42;24.02;;;14.20;;
76296;SDS011;65104;52.994;6.552;2023-05-07T06:52:08;24.45;;;14.50;;
76296;SDS011;65104;52.994;6.552;2023-05-07T06:54:33;25.05;;;15.05;;
76296;SDS011;65104;52.994;6.552;2023-05-07T06:56:58;25.25;;;13.55;;
76296;SDS011;65104;52.994;6.552;2023-05-07T06:59:24;23.50;;;13.85;;
76296;SDS011;65104;52.994;6.552;2023-05-07T07:01:49;22.73;;;13.13;;
76296;SDS011;65104;52.994;6.552;2023-05-07T07:04:15;26.60;;;13.93;;
76296;SDS011;65104;52.994;6.552;2023-05-07T07:06:40;23.08;;;12.95;;
76296;SDS011;65104;52.994;6.552;2023-05-07T07:09:05;23.80;;;14.20;;
76296;SDS011;65104;52.994;6.552;2023-05-07T07:11:31;23.50;;;13.88;;
76296;SDS011;65104;52.994;6.552;2023-05-07T07:13:56;25.88;;;14.23;;
76296;SDS011;65104;52.994;6.552;2023-05-07T07:16:21;24.33;;;13.32;;
76296;SDS011;65104;52.994;6.552;2023-05-07T07:18:47;25.17;;;14.38;;
76296;SDS011;65104;52.994;6.552;2023-05-07T07:21:12;22.90;;;12.68;;
76296;SDS011;65104;52.994;6.552;2023-05-07T07:23:38;22.15;;;13.73;;
76296;SDS011;65104;52.994;6.552;2023-05-07T07:26:03;25.20;;;13.50;;
76296;SDS011;65104;52.994;6.552;2023-05-07T07:28:29;23.67;;;13.77;;
76296;SDS011;65104;52.994;6.552;2023-05-07T07:30:54;27.38;;;13.73;;
76296;SDS011;65104;52.994;6.552;2023-05-07T07:33:19;26.02;;;14.10;;
76296;SDS011;65104;52.994;6.552;2023-05-07T07:35:45;25.38;;;13.93;;
76296;SDS011;65104;52.994;6.552;2023-05-07T07:38:10;25.30;;;14.15;;
76296;SDS011;65104;52.994;6.552;2023-05-07T07:40:35;25.58;;;14.65;;
76296;SDS011;65104;52.994;6.552;2023-05-07T07:43:01;24.83;;;14.25;;
76296;SDS011;65104;52.994;6.552;2023-05-07T07:45:26;26.77;;;15.98;;
76296;SDS011;65104;52.994;6.552;2023-05-07T07:47:52;25.02;;;13.75;;
76296;SDS011;65104;52.994;6.552;2023-05-07T07:50:17;26.27;;;13.98;;
76296;SDS011;65104;52.994;6.552;2023-05-07T07:52:43;24.90;;;14.52;;
76296;SDS011;65104;52.994;6.552;2023-05-07T07:55:09;22.80;;;14.25;;
76296;SDS011;65104;52.994;6.552;2023-05-07T07:57:34;25.20;;;13.68;;
76296;SDS011;65104;52.994;6.552;2023-05-07T08:00:00;24.88;;;15.10;;
76296;SDS011;65104;52.994;6.552;2023-05-07T08:02:25;23.80;;;13.98;;
76296;SDS011;65104;52.994;6.552;2023-05-07T08:04:51;24.60;;;14.70;;
76296;SDS011;65104;52.994;6.552;2023-05-07T08:07:16;23.02;;;13.45;;
76296;SDS011;65104;52.994;6.552;2023-05-07T08:09:45;27.10;;;15.43;;
76296;SDS011;65104;52.994;6.552;2023-05-07T08:12:10;23.38;;;12.82;;
76296;SDS011;65104;52.994;6.552;2023-05-07T08:14:36;27.77;;;13.95;;
76296;SDS011;65104;52.994;6.552;2023-05-07T08:17:02;27.67;;;14.43;;
76296;SDS011;65104;52.994;6.552;2023-05-07T08:19:27;22.77;;;13.38;;
76296;SDS011;65104;52.994;6.552;2023-05-07T08:21:53;23.83;;;14.35;;
76296;SDS011;65104;52.994;6.552;2023-05-07T08:24:18;29.60;;;14.65;;
76296;SDS011;65104;52.994;6.552;2023-05-07T08:26:44;21.98;;;13.25;;
76296;SDS011;65104;52.994;6.552;2023-05-07T08:29:10;22.52;;;12.63;;
76296;SDS011;65104;52.994;6.552;2023-05-07T08:31:36;24.58;;;13.07;;
76296;SDS011;65104;52.994;6.552;2023-05-07T08:34:01;26.00;;;13.40;;
76296;SDS011;65104;52.994;6.552;2023-05-07T08:36:28;24.90;;;14.75;;
76296;SDS011;65104;52.994;6.552;2023-05-07T08:38:53;23.35;;;13.98;;
76296;SDS011;65104;52.994;6.552;2023-05-07T08:41:19;24.75;;;13.90;;
76296;SDS011;65104;52.994;6.552;2023-05-07T08:43:46;19.75;;;12.75;;
76296;SDS011;65104;52.994;6.552;2023-05-07T08:46:16;20.63;;;12.30;;
76296;SDS011;65104;52.994;6.552;2023-05-07T08:48:50;22.50;;;12.35;;
76296;SDS011;65104;52.994;6.552;2023-05-07T08:51:17;24.42;;;13.88;;
76296;SDS011;65104;52.994;6.552;2023-05-07T08:53:44;24.27;;;14.57;;
76296;SDS011;65104;52.994;6.552;2023-05-07T08:56:10;22.08;;;12.70;;
76296;SDS011;65104;52.994;6.552;2023-05-07T08:58:36;24.17;;;13.93;;
76296;SDS011;65104;52.994;6.552;2023-05-07T09:01:14;24.33;;;14.57;;
76296;SDS011;65104;52.994;6.552;2023-05-07T09:03:41;22.17;;;13.85;;
76296;SDS011;65104;52.994;6.552;2023-05-07T09:06:10;24.90;;;14.23;;
76296;SDS011;65104;52.994;6.552;2023-05-07T09:08:36;24.60;;;13.68;;
76296;SDS011;65104;52.994;6.552;2023-05-07T09:11:02;22.50;;;13.48;;
76296;SDS011;65104;52.994;6.552;2023-05-07T09:13:30;19.92;;;13.38;;
76296;SDS011;65104;52.994;6.552;2023-05-07T09:15:55;24.60;;;13.75;;
76296;SDS011;65104;52.994;6.552;2023-05-07T09:18:24;21.27;;;13.88;;
76296;SDS011;65104;52.994;6.552;2023-05-07T09:20:50;20.13;;;11.82;;
76296;SDS011;65104;52.994;6.552;2023-05-07T09:23:15;20.15;;;13.50;;
76296;SDS011;65104;52.994;6.552;2023-05-07T09:25:41;20.02;;;12.65;;
76296;SDS011;65104;52.994;6.552;2023-05-07T09:28:06;22.27;;;12.57;;
76296;SDS011;65104;52.994;6.552;2023-05-07T09:30:32;20.08;;;13.07;;
76296;SDS011;65104;52.994;6.552;2023-05-07T09:32:59;20.73;;;11.68;;
76296;SDS011;65104;52.994;6.552;2023-05-07T09:35:26;16.08;;;10.50;;
76296;SDS011;65104;52.994;6.552;2023-05-07T09:37:56;20.70;;;12.25;;
76296;SDS011;65104;52.994;6.552;2023-05-07T09:40:25;22.30;;;12.07;;
76296;SDS011;65104;52.994;6.552;2023-05-07T09:42:52;18.88;;;12.20;;
76296;SDS011;65104;52.994;6.552;2023-05-07T09:45:27;16.65;;;11.55;;
76296;SDS011;65104;52.994;6.552;2023-05-07T09:47:54;18.55;;;10.50;;
76296;SDS011;65104;52.994;6.552;2023-05-07T09:50:24;16.92;;;10.82;;
76296;SDS011;65104;52.994;6.552;2023-05-07T09:52:52;14.73;;;10.73;;
76296;SDS011;65104;52.994;6.552;2023-05-07T09:55:19;19.13;;;10.95;;
76296;SDS011;65104;52.994;6.552;2023-05-07T09:57:45;17.10;;;11.75;;
76296;SDS011;65104;52.994;6.552;2023-05-07T10:00:12;16.80;;;11.85;;
76296;SDS011;65104;52.994;6.552;2023-05-07T10:02:38;17.80;;;11.13;;
76296;SDS011;65104;52.994;6.552;2023-05-07T10:05:11;16.95;;;10.95;;
76296;SDS011;65104;52.994;6.552;2023-05-07T10:07:39;16.38;;;10.27;;
76296;SDS011;65104;52.994;6.552;2023-05-07T10:10:05;16.50;;;10.80;;
76296;SDS011;65104;52.994;6.552;2023-05-07T10:12:31;19.60;;;11.23;;
76296;SDS011;65104;52.994;6.552;2023-05-07T10:15:04;15.80;;;9.55;;
76296;SDS011;65104;52.994;6.552;2023-05-07T10:17:31;17.75;;;11.05;;
76296;SDS011;65104;52.994;6.552;2023-05-07T10:19:57;16.40;;;10.38;;
76296;SDS011;65104;52.994;6.552;2023-05-07T10:22:23;14.38;;;9.68;;
76296;SDS011;65104;52.994;6.552;2023-05-07T10:24:51;14.30;;;9.20;;
76296;SDS011;65104;52.994;6.552;2023-05-07T10:27:19;13.18;;;9.23;;
76296;SDS011;65104;52.994;6.552;2023-05-07T10:35:13;13.82;;;9.60;;
76296;SDS011;65104;52.994;6.552;2023-05-07T10:37:44;14.95;;;9.63;;
76296;SDS011;65104;52.994;6.552;2023-05-07T10:40:10;15.55;;;9.75;;
76296;SDS011;65104;52.994;6.552;2023-05-07T10:42:37;15.13;;;9.73;;
76296;SDS011;65104;52.994;6.552;2023-05-07T10:45:14;16.67;;;10.27;;
76296;SDS011;65104;52.994;6.552;2023-05-07T10:50:33;15.10;;;10.30;;
76296;SDS011;65104;52.994;6.552;2023-05-07T10:53:20;16.48;;;10.15;;
76296;SDS011;65104;52.994;6.552;2023-05-07T10:55:48;15.93;;;9.60;;
76296;SDS011;65104;52.994;6.552;2023-05-07T10:58:27;15.52;;;9.30;;
76296;SDS011;65104;52.994;6.552;2023-05-07T11:01:00;13.10;;;8.70;;
76296;SDS011;65104;52.994;6.552;2023-05-07T11:03:26;15.27;;;10.35;;
76296;SDS011;65104;52.994;6.552;2023-05-07T11:14:42;12.70;;;8.85;;
76296;SDS011;65104;52.994;6.552;2023-05-07T11:17:10;13.55;;;9.48;;
76296;SDS011;65104;52.994;6.552;2023-05-07T11:24:56;12.85;;;8.93;;
76296;SDS011;65104;52.994;6.552;2023-05-07T11:27:28;13.75;;;9.88;;
76296;SDS011;65104;52.994;6.552;2023-05-07T11:29:54;13.65;;;9.52;;
76296;SDS011;65104;52.994;6.552;2023-05-07T11:32:23;13.90;;;8.82;;
76296;SDS011;65104;52.994;6.552;2023-05-07T11:34:53;11.63;;;9.20;;
76296;SDS011;65104;52.994;6.552;2023-05-07T11:37:22;13.07;;;9.18;;
76296;SDS011;65104;52.994;6.552;2023-05-07T11:39:49;12.80;;;9.15;;
76296;SDS011;65104;52.994;6.552;2023-05-07T11:42:27;14.40;;;9.45;;
76296;SDS011;65104;52.994;6.552;2023-05-07T11:44:54;13.35;;;9.82;;
76296;SDS011;65104;52.994;6.552;2023-05-07T11:47:19;13.32;;;8.10;;
76296;SDS011;65104;52.994;6.552;2023-05-07T11:49:48;12.18;;;7.88;;
76296;SDS011;65104;52.994;6.552;2023-05-07T11:52:15;13.27;;;9.35;;
76296;SDS011;65104;52.994;6.552;2023-05-07T11:54:43;12.68;;;9.35;;
76296;SDS011;65104;52.994;6.552;2023-05-07T11:57:14;12.02;;;9.15;;
76296;SDS011;65104;52.994;6.552;2023-05-07T11:59:40;13.50;;;8.90;;
76296;SDS011;65104;52.994;6.552;2023-05-07T12:02:06;14.68;;;8.98;;
76296;SDS011;65104;52.994;6.552;2023-05-07T12:04:32;13.00;;;8.63;;
76296;SDS011;65104;52.994;6.552;2023-05-07T12:06:57;11.88;;;8.50;;
76296;SDS011;65104;52.994;6.552;2023-05-07T12:09:23;13.90;;;9.40;;
76296;SDS011;65104;52.994;6.552;2023-05-07T12:11:48;13.95;;;8.90;;
76296;SDS011;65104;52.994;6.552;2023-05-07T12:14:14;12.20;;;8.45;;
76296;SDS011;65104;52.994;6.552;2023-05-07T12:16:42;14.85;;;9.65;;
76296;SDS011;65104;52.994;6.552;2023-05-07T12:19:08;13.45;;;8.50;;
76296;SDS011;65104;52.994;6.552;2023-05-07T12:21:37;13.45;;;9.25;;
76296;SDS011;65104;52.994;6.552;2023-05-07T12:24:03;13.30;;;8.77;;
76296;SDS011;65104;52.994;6.552;2023-05-07T12:26:29;15.32;;;8.95;;
76296;SDS011;65104;52.994;6.552;2023-05-07T12:28:54;14.30;;;8.95;;
76296;SDS011;65104;52.994;6.552;2023-05-07T12:31:20;13.23;;;8.82;;
76296;SDS011;65104;52.994;6.552;2023-05-07T12:33:45;14.73;;;9.35;;
76296;SDS011;65104;52.994;6.552;2023-05-07T12:36:12;13.45;;;9.20;;
76296;SDS011;65104;52.994;6.552;2023-05-07T12:38:38;12.15;;;8.95;;
76296;SDS011;65104;52.994;6.552;2023-05-07T12:41:05;14.25;;;9.88;;
76296;SDS011;65104;52.994;6.552;2023-05-07T12:43:32;12.40;;;9.10;;
76296;SDS011;65104;52.994;6.552;2023-05-07T12:45:59;11.90;;;8.85;;
76296;SDS011;65104;52.994;6.552;2023-05-07T12:48:26;14.32;;;10.25;;
76296;SDS011;65104;52.994;6.552;2023-05-07T12:50:55;13.27;;;10.00;;
76296;SDS011;65104;52.994;6.552;2023-05-07T12:53:22;12.63;;;9.68;;
76296;SDS011;65104;52.994;6.552;2023-05-07T12:55:53;14.27;;;9.68;;
76296;SDS011;65104;52.994;6.552;2023-05-07T12:58:22;13.82;;;9.50;;
76296;SDS011;65104;52.994;6.552;2023-05-07T13:00:50;12.32;;;8.48;;
76296;SDS011;65104;52.994;6.552;2023-05-07T13:03:26;12.45;;;8.90;;
76296;SDS011;65104;52.994;6.552;2023-05-07T13:05:54;11.68;;;8.60;;
76296;SDS011;65104;52.994;6.552;2023-05-07T13:10:51;12.60;;;8.70;;
76296;SDS011;65104;52.994;6.552;2023-05-07T13:13:17;12.82;;;10.73;;
76296;SDS011;65104;52.994;6.552;2023-05-07T13:15:42;12.32;;;9.13;;
76296;SDS011;65104;52.994;6.552;2023-05-07T13:18:07;12.15;;;8.93;;
76296;SDS011;65104;52.994;6.552;2023-05-07T13:20:35;11.80;;;8.98;;
76296;SDS011;65104;52.994;6.552;2023-05-07T13:23:00;12.27;;;9.80;;
76296;SDS011;65104;52.994;6.552;2023-05-07T13:25:27;10.48;;;7.97;;
76296;SDS011;65104;52.994;6.552;2023-05-07T13:27:52;11.07;;;7.07;;
76296;SDS011;65104;52.994;6.552;2023-05-07T13:30:17;13.43;;;9.75;;
76296;SDS011;65104;52.994;6.552;2023-05-07T13:32:43;9.98;;;8.25;;
76296;SDS011;65104;52.994;6.552;2023-05-07T13:35:08;11.27;;;8.43;;
76296;SDS011;65104;52.994;6.552;2023-05-07T13:37:34;12.20;;;8.77;;
76296;SDS011;65104;52.994;6.552;2023-05-07T13:39:59;10.75;;;7.63;;
76296;SDS011;65104;52.994;6.552;2023-05-07T13:42:25;10.55;;;8.27;;
76296;SDS011;65104;52.994;6.552;2023-05-07T13:44:50;12.50;;;7.15;;
76296;SDS011;65104;52.994;6.552;2023-05-07T13:47:16;9.73;;;7.57;;
76296;SDS011;65104;52.994;6.552;2023-05-07T13:49:41;10.73;;;7.80;;
76296;SDS011;65104;52.994;6.552;2023-05-07T13:52:06;10.07;;;7.20;;
76296;SDS011;65104;52.994;6.552;2023-05-07T13:54:32;12.68;;;8.65;;
76296;SDS011;65104;52.994;6.552;2023-05-07T13:56:57;10.75;;;8.02;;
76296;SDS011;65104;52.994;6.552;2023-05-07T13:59:22;10.40;;;8.20;;
76296;SDS011;65104;52.994;6.552;2023-05-07T14:01:48;10.20;;;7.72;;
76296;SDS011;65104;52.994;6.552;2023-05-07T14:04:14;10.90;;;7.43;;
76296;SDS011;65104;52.994;6.552;2023-05-07T14:06:40;9.43;;;7.28;;
76296;SDS011;65104;52.994;6.552;2023-05-07T14:09:05;8.85;;;6.97;;
76296;SDS011;65104;52.994;6.552;2023-05-07T14:11:30;9.95;;;7.72;;
76296;SDS011;65104;52.994;6.552;2023-05-07T14:13:56;9.52;;;7.20;;
76296;SDS011;65104;52.994;6.552;2023-05-07T14:16:22;8.95;;;7.47;;
76296;SDS011;65104;52.994;6.552;2023-05-07T14:18:47;9.30;;;6.85;;
76296;SDS011;65104;52.994;6.552;2023-05-07T14:21:12;8.20;;;6.68;;
76296;SDS011;65104;52.994;6.552;2023-05-07T14:23:38;7.32;;;6.50;;
76296;SDS011;65104;52.994;6.552;2023-05-07T14:26:04;8.63;;;6.20;;
76296;SDS011;65104;52.994;6.552;2023-05-07T14:28:29;6.85;;;5.57;;
76296;SDS011;65104;52.994;6.552;2023-05-07T14:30:55;9.27;;;6.72;;
76296;SDS011;65104;52.994;6.552;2023-05-07T14:33:20;8.18;;;6.78;;
76296;SDS011;65104;52.994;6.552;2023-05-07T14:35:46;8.48;;;6.95;;
76296;SDS011;65104;52.994;6.552;2023-05-07T14:38:13;7.93;;;6.60;;
76296;SDS011;65104;52.994;6.552;2023-05-07T14:40:39;8.88;;;7.88;;
76296;SDS011;65104;52.994;6.552;2023-05-07T14:43:05;10.45;;;6.93;;
76296;SDS011;65104;52.994;6.552;2023-05-07T14:45:30;9.15;;;7.07;;